Wetterdaten: Woche 19.06.23 - 25.06.23 (KW25)
Datum Zeit Temp. Aussen Temp. o. S. Temp +5cm Feuchte Auss Luftdruck Regen Sonnenschein Regendauer Solar Windben Empfang
19.06.2023 00:00 23,9 C 22,8 C 19,5 C 66 % 1009,6 hPa 0,0 l/m 0,00 h 0,00 h 0 W/m 18,0 km/h (3 Bft) 97,41 %
19.06.2023 01:00 22,9 C 21,5 C 18,3 C 71 % 1009,2 hPa 0,0 l/m 0,00 h 0,00 h 0 W/m 8,4 km/h (2 Bft) 97,02 %
19.06.2023 02:00 22,0 C 20,7 C 17,6 C 73 % 1009,4 hPa 0,0 l/m 0,00 h 0,00 h 0 W/m 4,9 km/h (1 Bft) 98,44 %
19.06.2023 03:00 21,3 C 20,1 C 17,0 C 75 % 1009,6 hPa 0,0 l/m 0,00 h 0,00 h 0 W/m 3,3 km/h (1 Bft) 96,39 %
19.06.2023 04:00 21,1 C 20,2 C 17,1 C 76 % 1010,2 hPa 0,0 l/m 0,00 h 0,00 h 0 W/m 11,2 km/h (2 Bft) 98,05 %
19.06.2023 05:00 21,0 C 19,8 C 16,7 C 77 % 1010,8 hPa 0,0 l/m 0,00 h 0,00 h 9 W/m 13,1 km/h (3 Bft) 97,84 %
19.06.2023 06:00 19,9 C 19,0 C 15,9 C 82 % 1011,6 hPa 0,0 l/m 0,00 h 0,00 h 32 W/m 9,5 km/h (2 Bft) 97,50 %
19.06.2023 07:00 20,3 C 19,9 C 16,7 C 82 % 1012,1 hPa 0,0 l/m 0,00 h 0,00 h 97 W/m 16,2 km/h (3 Bft) 96,48 %
19.06.2023 08:00 20,6 C 20,0 C 16,7 C 82 % 1012,6 hPa 0,0 l/m 0,00 h 0,00 h 109 W/m 15,0 km/h (3 Bft) 99,29 %
19.06.2023 09:00 20,6 C 21,3 C 17,7 C 86 % 1013,2 hPa 0,0 l/m 0,33 h 0,00 h 280 W/m 13,3 km/h (3 Bft) 96,56 %
19.06.2023 10:00 22,2 C 23,3 C 20,1 C 78 % 1013,1 hPa 0,0 l/m 0,40 h 0,00 h 384 W/m 15,1 km/h (3 Bft) 97,23 %
19.06.2023 11:00 24,5 C 26,5 C 22,9 C 68 % 1013,3 hPa 0,0 l/m 0,77 h 0,00 h 619 W/m 16,1 km/h (3 Bft) 98,68 %
19.06.2023 12:00 26,4 C 29,6 C 28,4 C 61 % 1013,5 hPa 0,0 l/m 1,00 h 0,00 h 829 W/m 15,7 km/h (3 Bft) 96,69 %
19.06.2023 13:00 27,4 C 30,7 C 28,6 C 56 % 1013,3 hPa 0,0 l/m 0,98 h 0,00 h 805 W/m 11,6 km/h (2 Bft) 90,64 %
19.06.2023 14:00 27,8 C 30,6 C 25,1 C 54 % 1013,2 hPa 0,0 l/m 0,80 h 0,00 h 682 W/m 12,4 km/h (3 Bft) 99,41 %
19.06.2023 15:00 28,9 C 33,1 C 24,0 C 51 % 1012,9 hPa 0,0 l/m 1,00 h 0,00 h 837 W/m 11,5 km/h (2 Bft) 95,90 %
19.06.2023 16:00 29,4 C 33,3 C 24,4 C 49 % 1012,6 hPa 0,0 l/m 1,00 h 0,00 h 726 W/m 11,0 km/h (2 Bft) 97,85 %
19.06.2023 17:00 29,5 C 33,6 C 24,7 C 48 % 1012,4 hPa 0,0 l/m 1,00 h 0,00 h 601 W/m 9,1 km/h (2 Bft) 97,55 %
19.06.2023 18:00 29,6 C 33,8 C 25,3 C 47 % 1012,0 hPa 0,0 l/m 0,95 h 0,00 h 438 W/m 8,2 km/h (2 Bft) 95,99 %
19.06.2023 19:00 29,2 C 30,3 C 24,2 C 48 % 1012,0 hPa 0,0 l/m 0,85 h 0,00 h 231 W/m 5,2 km/h (1 Bft) 98,71 %
19.06.2023 20:00 27,3 C 25,8 C 22,4 C 54 % 1012,0 hPa 0,0 l/m 0,00 h 0,00 h 55 W/m 3,0 km/h (1 Bft) 96,54 %
19.06.2023 21:00 25,8 C 23,9 C 20,9 C 60 % 1012,1 hPa 0,0 l/m 0,00 h 0,00 h 16 W/m 1,2 km/h (1 Bft) 99,22 %
19.06.2023 22:00 24,4 C 22,8 C 19,6 C 65 % 1012,5 hPa 0,0 l/m 0,00 h 0,00 h 0 W/m 0,1 km/h (0 Bft) 96,28 %
19.06.2023 23:00 23,7 C 22,8 C 19,4 C 65 % 1012,4 hPa 0,0 l/m 0,00 h 0,00 h 0 W/m 0,9 km/h (0 Bft) 98,30 %
20.06.2023 00:00 23,4 C 22,3 C 19,0 C 66 % 1012,1 hPa 0,0 l/m 0,00 h 0,00 h 0 W/m 1,3 km/h (1 Bft) 98,16 %
20.06.2023 01:00 22,9 C 21,9 C 18,6 C 68 % 1011,8 hPa 0,0 l/m 0,00 h 0,00 h 0 W/m 0,4 km/h (0 Bft) 97,02 %
20.06.2023 02:00 22,6 C 21,7 C 18,3 C 70 % 1011,5 hPa 0,0 l/m 0,00 h 0,00 h 0 W/m 1,1 km/h (1 Bft) 97,65 %
20.06.2023 03:00 22,1 C 21,0 C 17,8 C 72 % 1011,4 hPa 0,0 l/m 0,00 h 0,00 h 0 W/m 1,4 km/h (1 Bft) 98,51 %
20.06.2023 04:00 21,7 C 20,6 C 17,7 C 75 % 1011,3 hPa 0,0 l/m 0,00 h 0,03 h 0 W/m 1,0 km/h (0 Bft) 95,89 %
20.06.2023 05:00 21,4 C 20,1 C 16,9 C 77 % 1011,6 hPa 0,0 l/m 0,00 h 0,03 h 9 W/m 1,8 km/h (1 Bft) 99,22 %
20.06.2023 06:00 20,9 C 20,0 C 16,6 C 84 % 1011,7 hPa 0,0 l/m 0,00 h 0,00 h 13 W/m 4,4 km/h (1 Bft) 97,70 %
20.06.2023 07:00 20,8 C 20,3 C 17,2 C 85 % 1011,7 hPa 0,0 l/m 0,13 h 0,00 h 97 W/m 1,5 km/h (1 Bft) 96,39 %
20.06.2023 08:00 22,2 C 24,6 C 19,5 C 83 % 1011,8 hPa 0,0 l/m 0,63 h 0,00 h 302 W/m 7,9 km/h (2 Bft) 98,54 %
20.06.2023 09:00 25,2 C 29,2 C 24,0 C 74 % 1011,6 hPa 0,0 l/m 1,00 h 0,00 h 526 W/m 11,6 km/h (2 Bft) 97,45 %
20.06.2023 10:00 26,7 C 28,1 C 26,4 C 69 % 1011,2 hPa 0,0 l/m 0,93 h 0,00 h 696 W/m 12,7 km/h (3 Bft) 96,87 %
20.06.2023 11:00 28,0 C 30,0 C 26,8 C 65 % 1011,2 hPa 0,0 l/m 1,00 h 0,00 h 798 W/m 13,6 km/h (3 Bft) 98,69 %
20.06.2023 12:00 29,5 C 32,6 C 32,1 C 60 % 1010,9 hPa 0,0 l/m 1,00 h 0,00 h 854 W/m 13,3 km/h (3 Bft) 96,21 %
20.06.2023 13:00 30,9 C 35,0 C 34,4 C 56 % 1010,5 hPa 0,0 l/m 1,00 h 0,00 h 900 W/m 13,0 km/h (3 Bft) 97,98 %
20.06.2023 14:00 31,8 C 35,7 C 29,1 C 53 % 1010,2 hPa 0,0 l/m 0,85 h 0,00 h 778 W/m 13,7 km/h (3 Bft) 96,55 %
20.06.2023 15:00 31,8 C 34,1 C 28,1 C 53 % 1009,8 hPa 0,0 l/m 0,87 h 0,00 h 634 W/m 12,7 km/h (3 Bft) 95,66 %
20.06.2023 16:00 33,2 C 36,0 C 28,8 C 50 % 1009,2 hPa 0,0 l/m 0,80 h 0,00 h 622 W/m 12,9 km/h (3 Bft) 99,22 %
20.06.2023 17:00 32,1 C 31,6 C 27,9 C 51 % 1008,8 hPa 0,0 l/m 0,00 h 0,00 h 220 W/m 12,0 km/h (2 Bft) 96,96 %
20.06.2023 18:00 30,7 C 29,7 C 26,4 C 54 % 1008,8 hPa 0,0 l/m 0,00 h 0,00 h 93 W/m 17,7 km/h (3 Bft) 97,45 %
20.06.2023 19:00 29,4 C 28,4 C 25,2 C 58 % 1009,0 hPa 0,0 l/m 0,00 h 0,00 h 71 W/m 15,7 km/h (3 Bft) 98,12 %
20.06.2023 20:00 27,5 C 25,8 C 22,5 C 65 % 1009,5 hPa 0,0 l/m 0,00 h 0,00 h 29 W/m 15,9 km/h (3 Bft) 97,72 %
20.06.2023 21:00 24,5 C 23,3 C 20,1 C 76 % 1010,5 hPa 0,0 l/m 0,00 h 0,00 h 10 W/m 11,5 km/h (2 Bft) 96,17 %
20.06.2023 22:00 22,9 C 21,8 C 18,8 C 82 % 1011,8 hPa 0,0 l/m 0,00 h 0,00 h 0 W/m 12,4 km/h (3 Bft) 99,16 %
20.06.2023 23:00 21,0 C 19,6 C 16,4 C 90 % 1012,8 hPa 1,4 l/m 0,00 h 0,63 h 0 W/m 8,7 km/h (2 Bft) 97,07 %
21.06.2023 00:00 19,9 C 18,8 C 15,0 C 93 % 1012,5 hPa 0,0 l/m 0,00 h 0,00 h 0 W/m 3,1 km/h (1 Bft) 97,71 %
21.06.2023 01:00 19,4 C 18,4 C 14,7 C 94 % 1012,8 hPa 0,0 l/m 0,00 h 0,00 h 0 W/m 3,0 km/h (1 Bft) 98,08 %
21.06.2023 02:00 19,1 C 17,8 C 14,4 C 94 % 1013,0 hPa 0,0 l/m 0,00 h 0,00 h 0 W/m 1,7 km/h (1 Bft) 96,79 %
21.06.2023 03:00 18,8 C 17,8 C 14,7 C 95 % 1013,5 hPa 0,0 l/m 0,00 h 0,00 h 0 W/m 2,2 km/h (1 Bft) 97,45 %
21.06.2023 04:00 18,5 C 17,7 C 14,9 C 95 % 1013,8 hPa 0,0 l/m 0,00 h 0,00 h 0 W/m 3,9 km/h (1 Bft) 97,64 %
21.06.2023 05:00 18,3 C 17,4 C 14,7 C 95 % 1014,3 hPa 0,0 l/m 0,00 h 0,00 h 11 W/m 1,3 km/h (1 Bft) 95,87 %
21.06.2023 06:00 18,6 C 18,3 C 15,5 C 96 % 1014,7 hPa 0,0 l/m 0,00 h 0,00 h 34 W/m 4,0 km/h (1 Bft) 97,46 %
21.06.2023 07:00 19,3 C 19,3 C 16,1 C 95 % 1015,1 hPa 0,0 l/m 0,27 h 0,00 h 110 W/m 6,1 km/h (2 Bft) 99,50 %
21.06.2023 08:00 20,9 C 21,5 C 17,5 C 93 % 1015,9 hPa 0,0 l/m 0,40 h 0,00 h 203 W/m 10,2 km/h (2 Bft) 93,22 %
21.06.2023 09:00 22,1 C 24,1 C 20,1 C 87 % 1016,4 hPa 0,0 l/m 0,53 h 0,00 h 394 W/m 9,7 km/h (2 Bft) 98,80 %
21.06.2023 10:00 23,8 C 25,5 C 22,4 C 81 % 1016,6 hPa 0,0 l/m 0,57 h 0,00 h 489 W/m 12,5 km/h (3 Bft) 97,20 %
21.06.2023 11:00 24,8 C 26,3 C 22,9 C 77 % 1016,8 hPa 0,0 l/m 0,53 h 0,00 h 466 W/m 11,2 km/h (2 Bft) 98,07 %
21.06.2023 12:00 26,1 C 28,4 C 26,4 C 71 % 1017,3 hPa 0,0 l/m 0,60 h 0,00 h 618 W/m 13,9 km/h (3 Bft) 97,14 %
21.06.2023 13:00 27,2 C 30,8 C 28,1 C 65 % 1017,4 hPa 0,0 l/m 0,90 h 0,00 h 883 W/m 13,6 km/h (3 Bft) 98,03 %
21.06.2023 14:00 27,9 C 31,2 C 24,1 C 62 % 1017,6 hPa 0,0 l/m 0,83 h 0,00 h 717 W/m 12,5 km/h (3 Bft) 97,15 %
21.06.2023 15:00 28,7 C 31,5 C 23,7 C 58 % 1017,8 hPa 0,0 l/m 0,63 h 0,00 h 670 W/m 13,4 km/h (3 Bft) 97,83 %
21.06.2023 16:00 28,9 C 32,3 C 24,2 C 56 % 1017,8 hPa 0,0 l/m 0,93 h 0,00 h 706 W/m 13,5 km/h (3 Bft) 97,80 %
21.06.2023 17:00 29,0 C 31,4 C 24,3 C 54 % 1017,8 hPa 0,0 l/m 0,98 h 0,00 h 462 W/m 11,1 km/h (2 Bft) 98,40 %
21.06.2023 18:00 29,1 C 32,6 C 25,1 C 53 % 1017,7 hPa 0,0 l/m 0,93 h 0,00 h 415 W/m 11,6 km/h (2 Bft) 96,10 %
21.06.2023 19:00 28,3 C 28,6 C 23,5 C 54 % 1017,8 hPa 0,0 l/m 0,65 h 0,00 h 190 W/m 9,7 km/h (2 Bft) 98,98 %
21.06.2023 20:00 26,9 C 25,8 C 22,3 C 57 % 1017,7 hPa 0,0 l/m 0,07 h 0,00 h 80 W/m 2,4 km/h (1 Bft) 97,65 %
21.06.2023 21:00 25,6 C 24,0 C 20,9 C 59 % 1017,5 hPa 0,0 l/m 0,00 h 0,00 h 15 W/m 0,0 km/h (0 Bft) 95,23 %
21.06.2023 22:00 24,2 C 23,0 C 19,8 C 63 % 1018,4 hPa 0,0 l/m 0,00 h 0,00 h 0 W/m 5,5 km/h (1 Bft) 98,72 %
21.06.2023 23:00 23,4 C 22,3 C 19,0 C 66 % 1018,8 hPa 0,0 l/m 0,00 h 0,00 h 0 W/m 5,1 km/h (1 Bft) 97,34 %
22.06.2023 00:00 22,8 C 21,6 C 18,4 C 68 % 1018,7 hPa 0,0 l/m 0,00 h 0,00 h 0 W/m 3,6 km/h (1 Bft) 97,76 %
22.06.2023 01:00 22,1 C 21,1 C 17,8 C 71 % 1018,6 hPa 0,0 l/m 0,00 h 0,00 h 0 W/m 4,8 km/h (1 Bft) 98,65 %
22.06.2023 02:00 21,5 C 20,5 C 17,3 C 76 % 1018,6 hPa 0,0 l/m 0,00 h 0,00 h 0 W/m 2,6 km/h (1 Bft) 96,16 %
22.06.2023 03:00 21,0 C 19,8 C 16,8 C 79 % 1018,3 hPa 0,0 l/m 0,00 h 0,00 h 0 W/m 2,6 km/h (1 Bft) 97,10 %
22.06.2023 04:00 20,6 C 19,4 C 16,6 C 80 % 1018,0 hPa 0,0 l/m 0,00 h 0,00 h 0 W/m 1,7 km/h (1 Bft) 99,29 %
22.06.2023 05:00 20,4 C 19,4 C 16,1 C 82 % 1017,5 hPa 0,0 l/m 0,00 h 0,00 h 12 W/m 4,3 km/h (1 Bft) 95,03 %
22.06.2023 06:00 20,5 C 19,5 C 16,3 C 83 % 1017,4 hPa 0,0 l/m 0,00 h 0,03 h 18 W/m 2,2 km/h (1 Bft) 99,02 %
22.06.2023 07:00 20,4 C 19,6 C 16,1 C 85 % 1017,3 hPa 0,0 l/m 0,00 h 0,13 h 36 W/m 0,1 km/h (0 Bft) 97,93 %
22.06.2023 08:00 20,8 C 20,4 C 16,9 C 84 % 1017,4 hPa 0,0 l/m 0,00 h 0,00 h 75 W/m 3,8 km/h (1 Bft) 96,87 %
22.06.2023 09:00 21,2 C 20,7 C 17,0 C 82 % 1017,2 hPa 0,0 l/m 0,00 h 0,07 h 82 W/m 5,1 km/h (1 Bft) 97,72 %
22.06.2023 10:00 22,2 C 23,4 C 19,2 C 84 % 1016,2 hPa 0,0 l/m 0,13 h 0,00 h 349 W/m 10,1 km/h (2 Bft) 97,60 %
22.06.2023 11:00 26,1 C 28,7 C 23,3 C 73 % 1015,8 hPa 0,0 l/m 0,97 h 0,00 h 674 W/m 10,4 km/h (2 Bft) 96,20 %
22.06.2023 12:00 26,0 C 25,7 C 21,6 C 72 % 1015,7 hPa 0,0 l/m 0,20 h 0,07 h 199 W/m 8,8 km/h (2 Bft) 98,99 %
22.06.2023 13:00 23,8 C 21,6 C 17,0 C 85 % 1015,7 hPa 2,8 l/m 0,00 h 1,00 h 62 W/m 4,8 km/h (1 Bft) 96,29 %
22.06.2023 14:00 22,0 C 21,9 C 16,9 C 94 % 1014,3 hPa 0,2 l/m 0,00 h 0,40 h 218 W/m 9,2 km/h (2 Bft) 98,15 %
22.06.2023 15:00 22,7 C 22,9 C 17,2 C 93 % 1013,8 hPa 0,0 l/m 0,00 h 0,03 h 191 W/m 9,1 km/h (2 Bft) 97,07 %
22.06.2023 16:00 23,0 C 22,6 C 17,3 C 91 % 1012,6 hPa 0,0 l/m 0,00 h 0,03 h 103 W/m 13,7 km/h (3 Bft) 98,15 %
22.06.2023 17:00 22,2 C 21,4 C 17,6 C 91 % 1011,3 hPa 0,6 l/m 0,00 h 0,37 h 32 W/m 17,4 km/h (3 Bft) 96,58 %
22.06.2023 18:00 20,5 C 19,1 C 15,6 C 96 % 1011,1 hPa 5,6 l/m 0,00 h 1,00 h 9 W/m 19,0 km/h (3 Bft) 97,64 %
22.06.2023 19:00 19,7 C 18,4 C 15,0 C 98 % 1010,7 hPa 0,8 l/m 0,00 h 0,90 h 9 W/m 19,6 km/h (3 Bft) 97,38 %
22.06.2023 20:00 18,8 C 17,6 C 14,4 C 99 % 1011,1 hPa 18,6 l/m 0,00 h 1,00 h 0 W/m 28,3 km/h (4 Bft) 97,15 %
22.06.2023 21:00 17,5 C 16,4 C 13,2 C 99 % 1012,3 hPa 6,2 l/m 0,00 h 1,00 h 0 W/m 34,1 km/h (5 Bft) 94,40 %
22.06.2023 22:00 17,4 C 16,5 C 13,2 C 99 % 1013,4 hPa 4,2 l/m 0,00 h 1,00 h 0 W/m 34,9 km/h (5 Bft) 98,12 %
22.06.2023 23:00 17,5 C 16,6 C 13,3 C 99 % 1014,4 hPa 3,8 l/m 0,00 h 1,00 h 0 W/m 26,6 km/h (4 Bft) 97,21 %
23.06.2023 00:00 16,7 C 15,7 C 12,9 C 99 % 1015,8 hPa 0,0 l/m 0,00 h 0,73 h 0 W/m 23,9 km/h (4 Bft) 96,31 %
23.06.2023 01:00 16,2 C 15,6 C 12,4 C 99 % 1016,3 hPa 0,0 l/m 0,00 h 0,03 h 0 W/m 19,8 km/h (4 Bft) 98,56 %
23.06.2023 02:00 15,9 C 15,6 C 12,2 C 99 % 1017,3 hPa 0,0 l/m 0,00 h 0,00 h 0 W/m 14,4 km/h (3 Bft) 96,15 %
23.06.2023 03:00 15,8 C 15,6 C 12,2 C 98 % 1018,2 hPa 0,0 l/m 0,00 h 0,00 h 0 W/m 13,3 km/h (3 Bft) 97,80 %
23.06.2023 04:00 15,8 C 15,6 C 12,2 C 98 % 1019,0 hPa 0,0 l/m 0,00 h 0,00 h 0 W/m 9,6 km/h (2 Bft) 97,82 %
23.06.2023 05:00 15,8 C 15,1 C 12,2 C 97 % 1019,7 hPa 0,0 l/m 0,00 h 0,00 h 8 W/m 12,2 km/h (3 Bft) 98,02 %
23.06.2023 06:00 15,7 C 15,2 C 12,4 C 98 % 1020,5 hPa 0,0 l/m 0,00 h 0,00 h 25 W/m 10,7 km/h (2 Bft) 95,96 %
23.06.2023 07:00 16,1 C 16,1 C 13,2 C 98 % 1021,3 hPa 0,0 l/m 0,20 h 0,00 h 117 W/m 10,1 km/h (2 Bft) 99,00 %
23.06.2023 08:00 17,3 C 20,3 C 15,3 C 96 % 1021,8 hPa 0,0 l/m 0,97 h 0,00 h 330 W/m 12,9 km/h (3 Bft) 95,38 %
23.06.2023 09:00 19,8 C 24,1 C 18,6 C 88 % 1022,5 hPa 0,0 l/m 1,00 h 0,00 h 511 W/m 12,1 km/h (2 Bft) 97,96 %
23.06.2023 10:00 21,5 C 24,0 C 21,8 C 81 % 1022,9 hPa 0,0 l/m 1,00 h 0,00 h 674 W/m 11,7 km/h (2 Bft) 98,52 %
23.06.2023 11:00 23,1 C 26,2 C 22,3 C 74 % 1023,4 hPa 0,0 l/m 1,00 h 0,00 h 838 W/m 13,1 km/h (3 Bft) 98,43 %
23.06.2023 12:00 24,7 C 28,6 C 28,0 C 62 % 1023,8 hPa 0,0 l/m 1,00 h 0,00 h 891 W/m 14,0 km/h (3 Bft) 95,81 %
23.06.2023 13:00 25,3 C 29,7 C 29,2 C 59 % 1023,8 hPa 0,0 l/m 1,00 h 0,00 h 923 W/m 13,9 km/h (3 Bft) 99,08 %
23.06.2023 14:00 26,2 C 30,9 C 23,1 C 57 % 1023,9 hPa 0,0 l/m 1,00 h 0,00 h 920 W/m 15,0 km/h (3 Bft) 96,68 %
23.06.2023 15:00 27,0 C 30,8 C 22,8 C 58 % 1023,8 hPa 0,0 l/m 0,97 h 0,00 h 876 W/m 14,2 km/h (3 Bft) 98,01 %
23.06.2023 16:00 27,6 C 30,9 C 23,2 C 57 % 1023,6 hPa 0,0 l/m 0,93 h 0,00 h 693 W/m 15,1 km/h (3 Bft) 97,37 %
23.06.2023 17:00 27,7 C 30,5 C 23,5 C 55 % 1023,7 hPa 0,0 l/m 0,77 h 0,00 h 535 W/m 15,1 km/h (3 Bft) 98,16 %
23.06.2023 18:00 27,2 C 29,8 C 23,3 C 56 % 1023,8 hPa 0,0 l/m 0,90 h 0,00 h 365 W/m 13,0 km/h (3 Bft) 96,69 %
23.06.2023 19:00 26,7 C 27,4 C 22,0 C 56 % 1024,1 hPa 0,0 l/m 0,97 h 0,00 h 221 W/m 11,3 km/h (2 Bft) 96,86 %
23.06.2023 20:00 25,1 C 24,0 C 20,2 C 60 % 1024,2 hPa 0,0 l/m 0,00 h 0,00 h 49 W/m 5,7 km/h (1 Bft) 98,16 %
23.06.2023 21:00 23,7 C 21,7 C 18,1 C 69 % 1024,3 hPa 0,0 l/m 0,00 h 0,00 h 12 W/m 0,9 km/h (0 Bft) 97,34 %
23.06.2023 22:00 21,7 C 19,7 C 16,6 C 77 % 1024,8 hPa 0,0 l/m 0,00 h 0,00 h 0 W/m 0,0 km/h (0 Bft) 96,42 %
23.06.2023 23:00 20,1 C 18,3 C 15,4 C 82 % 1024,8 hPa 0,0 l/m 0,00 h 0,00 h 0 W/m 0,0 km/h (0 Bft) 98,74 %
24.06.2023 00:00 19,0 C 17,3 C 14,4 C 86 % 1024,9 hPa 0,0 l/m 0,00 h 0,00 h 0 W/m 0,0 km/h (0 Bft) 93,66 %
24.06.2023 01:00 18,3 C 16,7 C 13,8 C 89 % 1024,9 hPa 0,0 l/m 0,00 h 0,00 h 0 W/m 0,0 km/h (0 Bft) 96,67 %
24.06.2023 02:00 17,6 C 16,1 C 13,2 C 91 % 1024,7 hPa 0,0 l/m 0,00 h 0,00 h 0 W/m 0,0 km/h (0 Bft) 97,89 %
24.06.2023 03:00 17,2 C 16,0 C 13,0 C 93 % 1024,6 hPa 0,0 l/m 0,00 h 0,00 h 0 W/m 0,7 km/h (0 Bft) 98,36 %
24.06.2023 04:00 17,1 C 16,4 C 13,6 C 93 % 1024,3 hPa 0,0 l/m 0,00 h 0,00 h 0 W/m 1,0 km/h (0 Bft) 95,98 %
24.06.2023 05:00 17,0 C 16,1 C 13,3 C 92 % 1024,5 hPa 0,0 l/m 0,00 h 0,00 h 9 W/m 0,0 km/h (0 Bft) 97,37 %
24.06.2023 06:00 17,2 C 16,6 C 13,5 C 92 % 1024,8 hPa 0,0 l/m 0,00 h 0,00 h 27 W/m 0,0 km/h (0 Bft) 98,45 %
24.06.2023 07:00 18,0 C 18,0 C 14,7 C 93 % 1024,9 hPa 0,0 l/m 0,30 h 0,00 h 109 W/m 0,0 km/h (0 Bft) 96,36 %
24.06.2023 08:00 20,1 C 23,7 C 17,7 C 82 % 1025,2 hPa 0,0 l/m 1,00 h 0,00 h 353 W/m 3,2 km/h (1 Bft) 97,24 %
24.06.2023 09:00 23,4 C 28,8 C 22,3 C 67 % 1025,5 hPa 0,0 l/m 1,00 h 0,00 h 554 W/m 6,7 km/h (2 Bft) 99,29 %
24.06.2023 10:00 24,8 C 27,7 C 26,0 C 65 % 1025,4 hPa 0,0 l/m 1,00 h 0,00 h 698 W/m 8,5 km/h (2 Bft) 96,52 %
24.06.2023 11:00 25,5 C 27,9 C 25,2 C 64 % 1025,1 hPa 0,0 l/m 1,00 h 0,00 h 814 W/m 10,4 km/h (2 Bft) 97,73 %
24.06.2023 12:00 27,2 C 31,3 C 31,6 C 55 % 1024,5 hPa 0,0 l/m 1,00 h 0,00 h 889 W/m 11,1 km/h (2 Bft) 97,52 %
24.06.2023 13:00 29,2 C 34,0 C 33,5 C 46 % 1024,0 hPa 0,0 l/m 1,00 h 0,00 h 934 W/m 11,1 km/h (2 Bft) 98,07 %
24.06.2023 14:00 29,7 C 35,2 C 25,5 C 42 % 1023,7 hPa 0,0 l/m 1,00 h 0,00 h 924 W/m 10,4 km/h (2 Bft) 97,64 %
24.06.2023 15:00 29,9 C 34,2 C 23,9 C 41 % 1023,4 hPa 0,0 l/m 1,00 h 0,00 h 861 W/m 11,1 km/h (2 Bft) 97,88 %
24.06.2023 16:00 29,8 C 34,0 C 24,3 C 41 % 1023,0 hPa 0,0 l/m 1,00 h 0,00 h 758 W/m 10,5 km/h (2 Bft) 96,87 %
24.06.2023 17:00 30,1 C 34,5 C 25,0 C 39 % 1022,6 hPa 0,0 l/m 1,00 h 0,00 h 620 W/m 9,0 km/h (2 Bft) 98,77 %
24.06.2023 18:00 30,1 C 35,2 C 25,3 C 40 % 1022,2 hPa 0,0 l/m 1,00 h 0,00 h 456 W/m 7,2 km/h (2 Bft) 96,16 %
24.06.2023 19:00 30,0 C 31,4 C 24,1 C 43 % 1021,9 hPa 0,0 l/m 0,98 h 0,00 h 280 W/m 1,1 km/h (1 Bft) 97,16 %
24.06.2023 20:00 27,7 C 25,8 C 21,8 C 48 % 1021,6 hPa 0,0 l/m 0,07 h 0,00 h 38 W/m 2,6 km/h (1 Bft) 98,15 %
24.06.2023 21:00 25,5 C 23,1 C 19,5 C 60 % 1021,4 hPa 0,0 l/m 0,00 h 0,00 h 12 W/m 0,2 km/h (0 Bft) 97,58 %
24.06.2023 22:00 23,2 C 20,8 C 17,8 C 70 % 1021,4 hPa 0,0 l/m 0,00 h 0,00 h 0 W/m 0,0 km/h (0 Bft) 96,81 %
24.06.2023 23:00 21,4 C 19,5 C 16,7 C 76 % 1021,1 hPa 0,0 l/m 0,00 h 0,00 h 0 W/m 0,0 km/h (0 Bft) 96,27 %
25.06.2023 00:00 20,1 C 18,4 C 15,6 C 80 % 1021,1 hPa 0,0 l/m 0,00 h 0,00 h 0 W/m 0,0 km/h (0 Bft) 97,76 %
25.06.2023 01:00 19,1 C 17,7 C 14,8 C 83 % 1020,8 hPa 0,0 l/m 0,00 h 0,00 h 0 W/m 0,0 km/h (0 Bft) 97,57 %
25.06.2023 02:00 18,4 C 17,0 C 14,2 C 85 % 1020,3 hPa 0,0 l/m 0,00 h 0,00 h 0 W/m 0,0 km/h (0 Bft) 98,52 %
25.06.2023 03:00 17,8 C 16,5 C 13,7 C 87 % 1019,9 hPa 0,0 l/m 0,00 h 0,00 h 0 W/m 0,0 km/h (0 Bft) 96,04 %
25.06.2023 04:00 17,3 C 16,1 C 13,3 C 89 % 1019,4 hPa 0,0 l/m 0,00 h 0,00 h 0 W/m 0,0 km/h (0 Bft) 95,79 %
25.06.2023 05:00 17,1 C 16,3 C 13,4 C 90 % 1019,2 hPa 0,0 l/m 0,00 h 0,00 h 8 W/m 1,3 km/h (1 Bft) 97,68 %
25.06.2023 06:00 17,6 C 17,5 C 14,4 C 88 % 1019,1 hPa 0,0 l/m 0,00 h 0,00 h 21 W/m 4,1 km/h (1 Bft) 96,22 %
25.06.2023 07:00 19,0 C 18,9 C 15,6 C 86 % 1019,1 hPa 0,0 l/m 0,30 h 0,00 h 112 W/m 5,5 km/h (1 Bft) 98,37 %
25.06.2023 08:00 21,8 C 25,2 C 18,8 C 77 % 1019,1 hPa 0,0 l/m 1,00 h 0,00 h 385 W/m 9,1 km/h (2 Bft) 96,37 %
25.06.2023 09:00 25,2 C 29,8 C 23,8 C 66 % 1018,9 hPa 0,0 l/m 1,00 h 0,00 h 549 W/m 9,4 km/h (2 Bft) 98,15 %
25.06.2023 10:00 27,8 C 30,6 C 28,3 C 60 % 1018,7 hPa 0,0 l/m 1,00 h 0,00 h 692 W/m 9,3 km/h (2 Bft) 97,98 %
25.06.2023 11:00 29,4 C 31,7 C 27,6 C 56 % 1018,5 hPa 0,0 l/m 1,00 h 0,00 h 807 W/m 10,4 km/h (2 Bft) 97,29 %
25.06.2023 12:00 31,2 C 35,0 C 32,9 C 51 % 1017,9 hPa 0,0 l/m 1,00 h 0,00 h 881 W/m 9,9 km/h (2 Bft) 97,79 %
25.06.2023 13:00 32,1 C 36,4 C 34,5 C 48 % 1017,4 hPa 0,0 l/m 1,00 h 0,00 h 913 W/m 10,6 km/h (2 Bft) 97,86 %
25.06.2023 14:00 32,5 C 37,7 C 28,8 C 47 % 1016,9 hPa 0,0 l/m 1,00 h 0,00 h 914 W/m 9,7 km/h (2 Bft) 97,01 %
25.06.2023 15:00 32,7 C 36,7 C 27,3 C 46 % 1016,4 hPa 0,0 l/m 1,00 h 0,00 h 840 W/m 10,3 km/h (2 Bft) 96,79 %
25.06.2023 16:00 33,0 C 36,8 C 27,6 C 45 % 1015,8 hPa 0,0 l/m 1,00 h 0,00 h 735 W/m 9,7 km/h (2 Bft) 98,86 %
25.06.2023 17:00 33,5 C 37,8 C 28,3 C 44 % 1015,2 hPa 0,0 l/m 1,00 h 0,00 h 600 W/m 9,2 km/h (2 Bft) 94,62 %
25.06.2023 18:00 33,6 C 37,9 C 28,4 C 44 % 1014,7 hPa 0,0 l/m 1,00 h 0,00 h 436 W/m 7,6 km/h (2 Bft) 97,55 %
25.06.2023 19:00 32,9 C 34,0 C 27,2 C 45 % 1014,3 hPa 0,0 l/m 1,00 h 0,00 h 262 W/m 6,1 km/h (2 Bft) 98,73 %
25.06.2023 20:00 31,2 C 29,1 C 23,9 C 51 % 1014,1 hPa 0,0 l/m 0,07 h 0,00 h 44 W/m 3,2 km/h (1 Bft) 96,94 %
25.06.2023 21:00 28,6 C 26,0 C 21,6 C 63 % 1013,9 hPa 0,0 l/m 0,00 h 0,00 h 14 W/m 0,3 km/h (0 Bft) 98,43 %
25.06.2023 22:00 26,0 C 23,8 C 20,0 C 70 % 1013,8 hPa 0,0 l/m 0,00 h 0,00 h 0 W/m 0,1 km/h (0 Bft) 96,56 %
25.06.2023 23:00 24,2 C 22,4 C 18,7 C 74 % 1013,6 hPa 0,0 l/m 0,00 h 0,00 h 0 W/m 0,0 km/h (0 Bft) 97,95 %
Min-Datum _ 23.06.23 23.06.23 23.06.23 24.06.23 20.06.23 - - - - 19.06.23 19.06.23
_ Min-Zeit 03:38 05:06 01:18 17:10 17:34 - - - - 03:32 13:25
Minimum _ 15,7 C 15,0 C 12,2 C 38 % 1008,7 hPa - - - - 0,0 km/h (0 Bft) 0,88 %
Max-Datum _ 25.06.23 25.06.23 20.06.23 22.06.23 24.06.23 22.06.23 19.06.23 23.06.23 21.06.23 22.06.23 19.06.23
_ Max-Zeit 18:40 18:30 13:46 23:46 09:38 20:28 13:24 00:15 13:44 23:00 00:04
Maximum _ 33,8 C 38,9 C 37,8 C 100 % 1025,6 hPa 18,6 l/m 0,08 h 0,08 h 1062 W/m 57,9 km/h
N-NW (7 Bft)
100,00 %
Durchschnitt _ 23,8 C 24,5 C 20,3 C 72 % 1016,8 hPa #44,2 l/m #64:08 h #9:34 h 397 W/m 8,5 km/h (2 Bft) 97,38 %
© 2023 W. Hausmann